Time;durP1;ratioP1;P1;durP2;ratioP2;P2;SDS_P1;SDS_P2;PMS_P1;PMS_P2;Temp;Humidity;BMP_temperature;BMP_pressure;BME280_temperature;BME280_humidity;BME280_pressure;Samples;Min_cycle;Max_cycle;Signal;HPM_P1;HPM_P2
2022/07/16 00:03:52;;;;;;;4.38;1.85;;;15.80;96.80;;;;;;5112822;28;20058;-58
2022/07/16 00:06:18;;;;;;;;;;;15.70;97.00;;;;;;5099128;28;20045;-55
2022/07/16 00:08:44;;;;;;;3.38;2.00;;;15.60;97.20;;;;;;5111522;28;19926;-57
2022/07/16 00:11:10;;;;;;;5.22;1.90;;;15.50;97.50;;;;;;5111058;28;20028;-55
2022/07/16 00:13:35;;;;;;;5.35;2.00;;;15.50;97.60;;;;;;5112207;28;20077;-48
2022/07/16 00:16:01;;;;;;;4.28;1.80;;;15.30;97.90;;;;;;5112111;28;20047;-51
2022/07/16 00:21:11;;;;;;;4.82;2.08;;;15.30;98.20;;;;;;5112082;28;20062;-48
2022/07/16 00:23:37;;;;;;;4.22;1.60;;;15.30;98.30;;;;;;5093877;28;20454;-60
2022/07/16 00:26:02;;;;;;;3.05;1.80;;;15.30;98.10;;;;;;5111814;28;20015;-48
2022/07/16 00:28:28;;;;;;;3.70;2.05;;;15.40;98.20;;;;;;5112252;28;20023;-54
2022/07/16 00:30:54;;;;;;;2.97;1.80;;;15.40;98.40;;;;;;5111837;28;20473;-58
2022/07/16 00:33:19;;;;;;;3.13;2.10;;;15.40;98.10;;;;;;5111803;28;20471;-58
2022/07/16 00:35:45;;;;;;;4.43;2.20;;;15.40;98.30;;;;;;5111882;28;20027;-60
2022/07/16 00:38:12;;;;;;;4.68;2.00;;;15.40;98.10;;;;;;5111399;28;20019;-53
2022/07/16 00:40:38;;;;;;;4.75;2.13;;;15.40;98.30;;;;;;5111387;28;20054;-54
2022/07/16 00:43:03;;;;;;;4.38;2.40;;;15.40;98.40;;;;;;5111791;28;20051;-58
2022/07/16 00:45:29;;;;;;;4.07;2.20;;;15.40;98.10;;;;;;5111737;28;20417;-56
2022/07/16 00:47:55;;;;;;;3.63;2.28;;;15.40;98.20;;;;;;5111458;28;20502;-58
2022/07/16 00:50:21;;;;;;;4.38;2.28;;;15.50;98.00;;;;;;5111564;28;20035;-55
2022/07/16 00:52:47;;;;;;;4.47;2.17;;;15.50;97.80;;;;;;5111721;28;20030;-56
2022/07/16 00:55:12;;;;;;;3.50;2.40;;;15.50;98.20;;;;;;5097493;28;20025;-57
2022/07/16 00:57:38;;;;;;;4.00;2.50;;;15.50;98.20;;;;;;5111474;28;20386;-49
2022/07/16 01:00:05;;;;;;;4.45;2.63;;;15.50;98.00;;;;;;5111623;28;20058;-58
2022/07/16 01:02:33;;;;;;;4.80;2.97;;;15.50;98.10;;;;;;5111244;28;20465;-54
2022/07/16 01:04:59;;;;;;;4.18;2.35;;;15.50;98.00;;;;;;5111428;28;20027;-58
2022/07/16 01:07:24;;;;;;;4.18;2.42;;;15.50;98.00;;;;;;5111031;28;20027;-53
2022/07/16 01:09:51;;;;;;;5.55;2.50;;;15.50;98.30;;;;;;5092794;28;20063;-55
2022/07/16 01:12:17;;;;;;;4.60;2.78;;;15.50;98.40;;;;;;5110656;28;20042;-58
2022/07/16 01:14:44;;;;;;;4.90;2.85;;;15.50;98.10;;;;;;5111170;28;20035;-58
2022/07/16 01:17:10;;;;;;;3.72;2.60;;;15.60;98.10;;;;;;5111367;28;20023;-58
2022/07/16 01:19:36;;;;;;;4.75;2.80;;;15.60;98.10;;;;;;5111142;28;20360;-51
2022/07/16 01:22:01;;;;;;;6.88;2.72;;;15.60;98.00;;;;;;5111303;28;20019;-55
2022/07/16 01:24:27;;;;;;;4.20;3.00;;;15.60;98.20;;;;;;5111307;28;20423;-53
2022/07/16 01:26:53;;;;;;;4.63;2.90;;;15.60;97.90;;;;;;5111144;28;20474;-50
2022/07/16 01:29:18;;;;;;;5.57;2.70;;;15.60;97.90;;;;;;5111472;28;20035;-53
2022/07/16 01:31:44;;;;;;;6.30;2.72;;;15.60;97.70;;;;;;5111205;28;20503;-60
2022/07/16 01:34:25;;;;;;;9.02;3.00;;;15.60;97.60;;;;;;5111431;28;20059;-51
2022/07/16 01:36:56;;;;;;;4.07;3.00;;;15.60;98.10;;;;;;5111087;28;20012;-58
2022/07/16 01:39:23;;;;;;;4.65;2.58;;;15.50;98.20;;;;;;5111392;28;20115;-59
2022/07/16 01:41:54;;;;;;;4.57;2.75;;;15.50;98.30;;;;;;5110988;28;20032;-53
2022/07/16 01:44:21;;;;;;;4.53;2.47;;;15.40;97.70;;;;;;5111154;28;20037;-61
2022/07/16 01:46:46;;;;;;;3.83;2.20;;;15.40;98.00;;;;;;5111013;28;20046;-51
2022/07/16 01:49:12;;;;;;;4.88;2.40;;;15.20;98.20;;;;;;5110655;28;20048;-55
2022/07/16 01:51:39;;;;;;;4.47;2.40;;;15.20;98.30;;;;;;5111178;28;20517;-45
2022/07/16 01:54:05;;;;;;;3.75;2.60;;;15.10;98.60;;;;;;5110942;28;20024;-45
2022/07/16 01:56:30;;;;;;;3.70;2.40;;;15.10;98.60;;;;;;5109012;28;20034;-48
2022/07/16 01:58:56;;;;;;;5.85;3.05;;;15.20;98.80;;;;;;5097593;28;20394;-44
2022/07/16 02:01:22;;;;;;;5.05;2.97;;;15.20;98.90;;;;;;5115984;28;20023;-57
2022/07/16 02:03:47;;;;;;;3.85;2.67;;;15.10;98.80;;;;;;5110863;28;20482;-60
2022/07/16 02:06:13;;;;;;;4.55;2.72;;;15.10;98.90;;;;;;5110608;28;20058;-49
2022/07/16 02:08:39;;;;;;;4.95;2.90;;;15.10;98.80;;;;;;5110168;28;20028;-58
2022/07/16 02:11:05;;;;;;;5.95;3.00;;;15.10;98.90;;;;;;5110851;28;20112;-57
2022/07/16 02:13:30;;;;;;;6.55;2.88;;;15.10;99.50;;;;;;5110637;28;20012;-55
2022/07/16 02:15:56;;;;;;;5.97;3.05;;;15.10;98.80;;;;;;5110484;28;20023;-46
2022/07/16 02:18:22;;;;;;;6.57;3.20;;;15.10;98.90;;;;;;5110499;28;20444;-60
2022/07/16 02:20:47;;;;;;;6.13;3.45;;;15.10;98.80;;;;;;5110800;28;20412;-52
2022/07/16 02:23:13;;;;;;;5.85;2.75;;;15.10;98.80;;;;;;5110748;28;20087;-56
2022/07/16 02:25:40;;;;;;;3.92;2.85;;;15.10;98.70;;;;;;5113966;28;20016;-51
2022/07/16 02:28:06;;;;;;;5.85;3.13;;;15.10;98.80;;;;;;5100594;28;20024;-54
2022/07/16 02:30:34;;;;;;;6.18;3.03;;;15.10;98.90;;;;;;5113678;28;20030;-54
2022/07/16 02:32:59;;;;;;;4.03;2.75;;;15.10;98.80;;;;;;5114114;28;20073;-51
2022/07/16 02:35:25;;;;;;;4.50;2.90;;;15.10;99.10;;;;;;5113764;28;20023;-52
2022/07/16 02:37:51;;;;;;;4.10;2.70;;;15.10;98.70;;;;;;5113717;28;20024;-45
2022/07/16 02:40:17;;;;;;;4.20;2.58;;;15.10;98.80;;;;;;5113732;28;20026;-50
2022/07/16 02:42:43;;;;;;;3.92;2.85;;;15.10;98.80;;;;;;5113992;28;20532;-48
2022/07/16 02:45:11;;;;;;;3.90;2.33;;;15.00;98.60;;;;;;5113695;28;20019;-56
2022/07/16 02:47:37;;;;;;;4.15;2.75;;;14.90;98.50;;;;;;5114115;28;20031;-59
2022/07/16 02:50:04;;;;;;;4.95;2.88;;;14.70;98.70;;;;;;5113718;28;20039;-58
2022/07/16 02:52:30;;;;;;;3.88;2.25;;;14.60;99.00;;;;;;5113712;28;20024;-59
2022/07/16 02:54:56;;;;;;;4.25;2.85;;;14.50;99.20;;;;;;5113657;28;20119;-55
2022/07/16 02:57:21;;;;;;;6.03;3.08;;;14.40;99.50;;;;;;5095478;28;20038;-58
2022/07/16 02:59:47;;;;;;;5.40;2.72;;;14.40;99.70;;;;;;5113678;28;20035;-56
2022/07/16 03:02:12;;;;;;;4.30;2.65;;;14.40;99.90;;;;;;5113722;28;20035;-45
2022/07/16 03:04:38;;;;;;;4.53;2.78;;;14.40;99.90;;;;;;5112709;28;20020;-54
2022/07/16 03:07:04;;;;;;;4.15;2.60;;;14.40;99.80;;;;;;5113082;28;20043;-61
2022/07/16 03:09:30;;;;;;;4.50;2.63;;;14.30;99.90;;;;;;5112959;28;20035;-54
2022/07/16 03:11:55;;;;;;;4.70;2.50;;;14.30;99.90;;;;;;5113253;28;20024;-50
2022/07/16 03:14:21;;;;;;;4.28;2.78;;;14.30;99.90;;;;;;5113263;28;20027;-43
2022/07/16 03:16:47;;;;;;;4.25;2.63;;;14.30;99.90;;;;;;5113287;28;20026;-49
2022/07/16 03:19:12;;;;;;;4.18;2.72;;;14.40;99.90;;;;;;5113288;28;20378;-53
2022/07/16 03:21:38;;;;;;;4.68;2.28;;;14.40;99.90;;;;;;5113121;28;20476;-52
2022/07/16 03:24:04;;;;;;;4.07;2.47;;;14.50;99.90;;;;;;5113333;28;20093;-57
2022/07/16 03:26:30;;;;;;;5.00;2.53;;;14.50;99.40;;;;;;5112801;28;20023;-56
2022/07/16 03:28:55;;;;;;;3.13;2.28;;;14.60;99.60;;;;;;5112800;28;20051;-53
2022/07/16 03:31:21;;;;;;;4.07;2.15;;;14.60;99.10;;;;;;5112778;28;20172;-47
2022/07/16 03:33:47;;;;;;;4.65;2.40;;;14.70;98.70;;;;;;5112770;28;20084;-44
2022/07/16 03:36:13;;;;;;;3.95;2.60;;;14.70;99.10;;;;;;5112212;28;20019;-53
2022/07/16 03:41:24;;;;;;;3.00;2.20;;;14.70;99.50;;;;;;5113014;28;20038;-57
2022/07/16 03:43:49;;;;;;;3.53;2.30;;;14.70;99.30;;;;;;5112511;28;20462;-48
2022/07/16 03:46:15;;;;;;;3.70;2.60;;;14.70;99.00;;;;;;5112319;28;20023;-52
2022/07/16 03:48:42;;;;;;;4.30;2.20;;;14.70;99.30;;;;;;5103976;28;20050;-52
2022/07/16 03:51:08;;;;;;;5.70;2.50;;;14.70;99.20;;;;;;5112338;28;20070;-53
2022/07/16 03:53:34;;;;;;;3.80;2.63;;;14.60;99.50;;;;;;5094047;28;20027;-49
2022/07/16 03:56:00;;;;;;;3.33;2.45;;;14.60;99.20;;;;;;5112132;28;20026;-58
2022/07/16 03:58:26;;;;;;;3.28;1.98;;;14.60;99.00;;;;;;5112504;28;20023;-55
2022/07/16 04:00:52;;;;;;;3.65;2.33;;;14.60;99.30;;;;;;5112266;28;20390;-52
2022/07/16 04:03:19;;;;;;;2.90;2.10;;;14.60;99.10;;;;;;5112398;28;20020;-45
2022/07/16 04:05:44;;;;;;;3.45;2.40;;;14.60;99.20;;;;;;5111903;28;20478;-54
2022/07/16 04:08:10;;;;;;;4.18;2.65;;;14.60;99.40;;;;;;5112173;28;20106;-59
2022/07/16 04:10:36;;;;;;;3.58;2.30;;;14.60;99.60;;;;;;5112063;28;20019;-44
2022/07/16 04:13:02;;;;;;;5.07;2.33;;;14.60;99.70;;;;;;5112019;28;20020;-60
2022/07/16 04:15:27;;;;;;;4.53;2.58;;;14.50;99.80;;;;;;5111917;28;20020;-44
2022/07/16 04:17:53;;;;;;;3.00;2.42;;;14.50;99.50;;;;;;5110381;28;20143;-49
2022/07/16 04:20:19;;;;;;;5.72;2.50;;;14.40;99.70;;;;;;5110495;28;20545;-59
2022/07/16 04:22:45;;;;;;;4.68;2.17;;;14.40;99.80;;;;;;5113871;27;20049;-57
2022/07/16 04:25:12;;;;;;;3.67;2.50;;;14.40;99.70;;;;;;5111186;27;20102;-55
2022/07/16 04:27:39;;;;;;;3.45;2.20;;;14.40;99.90;;;;;;5113370;27;20130;-52
2022/07/16 04:30:05;;;;;;;3.95;2.25;;;14.40;99.90;;;;;;5127195;27;20026;-54
2022/07/16 04:32:31;;;;;;;5.40;2.10;;;14.40;99.90;;;;;;5124044;27;20046;-54
2022/07/16 04:34:57;;;;;;;2.58;1.83;;;14.40;99.90;;;;;;5125086;27;20059;-60
2022/07/16 04:37:22;;;;;;;3.13;2.15;;;14.50;99.90;;;;;;5110496;27;20064;-53
2022/07/16 04:39:48;;;;;;;4.70;2.35;;;14.50;99.70;;;;;;5125386;27;20038;-59
2022/07/16 04:42:14;;;;;;;5.05;2.90;;;14.40;99.40;;;;;;5128827;27;20015;-40
2022/07/16 04:44:39;;;;;;;5.72;2.80;;;14.20;99.30;;;;;;5126919;27;20019;-39
2022/07/16 04:47:05;;;;;;;7.18;2.53;;;14.10;99.60;;;;;;5082136;28;20024;-54
2022/07/16 04:49:31;;;;;;;5.22;2.67;;;13.90;99.60;;;;;;5121781;27;20039;-57
2022/07/16 04:51:56;;;;;;;3.38;2.47;;;13.80;99.60;;;;;;5116023;27;20027;-47
2022/07/16 04:54:22;;;;;;;4.95;2.80;;;13.70;99.90;;;;;;5108837;27;20020;-52
2022/07/16 04:56:48;;;;;;;3.83;2.72;;;13.60;99.90;;;;;;5111561;28;20043;-53
2022/07/16 04:59:13;;;;;;;5.45;2.80;;;13.60;99.90;;;;;;5095042;28;20028;-48
2022/07/16 05:01:39;;;;;;;5.55;2.97;;;13.70;99.90;;;;;;5112952;28;20015;-51
2022/07/16 05:04:05;;;;;;;4.68;2.70;;;13.70;99.90;;;;;;5112334;27;20423;-51
2022/07/16 05:06:30;;;;;;;4.75;2.80;;;13.90;99.90;;;;;;5112080;28;20390;-52
2022/07/16 05:09:01;;;;;;;4.10;2.72;;;13.90;99.90;;;;;;5113235;27;20093;-49
2022/07/16 05:11:27;;;;;;;5.70;3.08;;;14.00;99.90;;;;;;5110557;28;20092;-51
2022/07/16 05:13:56;;;;;;;6.00;2.75;;;14.00;99.90;;;;;;5111184;28;20027;-53
2022/07/16 05:16:22;;;;;;;6.00;2.97;;;13.90;99.90;;;;;;5109176;28;20031;-53
2022/07/16 05:18:48;;;;;;;4.95;3.00;;;13.90;99.90;;;;;;5109346;28;20035;-53
2022/07/16 05:21:14;;;;;;;5.35;3.00;;;14.00;99.90;;;;;;5109493;28;20069;-57
2022/07/16 05:23:40;;;;;;;5.18;2.83;;;14.10;99.90;;;;;;5109704;28;20493;-56
2022/07/16 05:26:06;;;;;;;4.57;2.88;;;14.30;99.90;;;;;;5109677;28;20028;-51
2022/07/16 05:28:31;;;;;;;4.72;2.88;;;14.40;99.90;;;;;;5109569;28;20032;-49
2022/07/16 05:30:57;;;;;;;5.95;2.80;;;14.60;99.90;;;;;;5111062;28;20027;-59
2022/07/16 05:33:23;;;;;;;4.97;2.83;;;14.80;99.10;;;;;;5111162;28;20435;-56
2022/07/16 05:35:49;;;;;;;3.85;2.65;;;15.00;99.40;;;;;;5111024;28;20538;-59
2022/07/16 05:38:14;;;;;;;4.93;2.92;;;15.10;98.70;;;;;;5111066;28;20024;-52
2022/07/16 05:40:40;;;;;;;4.35;2.47;;;15.30;99.80;;;;;;5111136;28;20023;-55
2022/07/16 05:43:06;;;;;;;3.70;2.38;;;15.50;99.30;;;;;;5110781;28;20035;-52
2022/07/16 05:45:32;;;;;;;3.35;2.33;;;15.70;99.30;;;;;;5104589;28;20031;-56
2022/07/16 05:47:58;;;;;;;4.15;2.20;;;16.00;97.90;;;;;;5111410;28;20051;-51
2022/07/16 05:50:24;;;;;;;4.38;2.38;;;16.30;97.90;;;;;;5111577;28;20063;-48
2022/07/16 05:52:50;;;;;;;3.33;2.10;;;16.60;96.30;;;;;;5111056;28;20024;-52
2022/07/16 05:55:15;;;;;;;4.75;2.22;;;17.00;97.00;;;;;;5111852;28;20387;-56
2022/07/16 05:57:41;;;;;;;4.50;2.50;;;17.50;95.50;;;;;;5131250;27;20156;-49
2022/07/16 06:00:10;;;;;;;3.72;2.53;;;18.10;93.70;;;;;;5115010;27;20031;-55
2022/07/16 06:02:37;;;;;;;3.23;1.80;;;18.90;92.30;;;;;;5115339;27;20046;-54
2022/07/16 06:05:03;;;;;;;3.42;1.75;;;20.00;90.30;;;;;;5129208;27;20274;-54
2022/07/16 06:07:29;;;;;;;3.13;1.60;;;21.00;87.50;;;;;;5131520;27;20017;-58
2022/07/16 06:09:54;;;;;;;2.92;1.40;;;22.00;86.50;;;;;;5109135;28;20116;-55
2022/07/16 06:12:20;;;;;;;3.00;1.35;;;23.00;81.00;;;;;;5115878;27;20051;-48
2022/07/16 06:14:46;;;;;;;4.25;1.30;;;24.00;80.90;;;;;;5117526;27;20028;-54
2022/07/16 06:17:13;;;;;;;3.47;1.35;;;25.10;76.00;;;;;;5116577;27;20027;-56
2022/07/16 06:19:43;;;;;;;2.22;1.20;;;25.70;70.70;;;;;;5117660;27;20032;-48
2022/07/16 06:22:09;;;;;;;1.80;1.30;;;26.30;70.10;;;;;;5117521;27;20031;-57
2022/07/16 06:24:35;;;;;;;2.30;1.23;;;26.70;67.40;;;;;;5118484;27;20019;-60
2022/07/16 06:27:01;;;;;;;3.25;1.33;;;27.10;64.10;;;;;;5119612;27;20019;-44
2022/07/16 06:29:26;;;;;;;2.47;1.15;;;27.30;63.20;;;;;;5117734;27;20724;-55
2022/07/16 06:31:53;;;;;;;1.75;1.02;;;27.60;60.50;;;;;;5120406;27;20393;-51
2022/07/16 06:34:18;;;;;;;4.47;1.30;;;27.60;58.80;;;;;;5117577;27;20382;-46
2022/07/16 06:36:44;;;;;;;2.15;1.20;;;27.90;58.40;;;;;;5120660;27;20007;-55
2022/07/16 06:39:10;;;;;;;2.92;1.23;;;28.10;56.70;;;;;;5115900;27;20073;-53
2022/07/16 06:41:39;;;;;;;1.95;1.20;;;28.40;55.30;;;;;;5116870;27;20034;-55
2022/07/16 06:44:06;;;;;;;1.77;0.90;;;28.50;53.30;;;;;;5116287;27;20024;-55
2022/07/16 06:46:32;;;;;;;2.13;1.20;;;29.10;54.00;;;;;;5114938;27;20019;-50
2022/07/16 06:48:58;;;;;;;1.38;1.00;;;29.40;52.50;;;;;;5115361;27;20407;-54
2022/07/16 06:51:24;;;;;;;2.10;1.00;;;29.60;52.70;;;;;;5115910;27;20023;-48
2022/07/16 06:53:49;;;;;;;3.10;1.10;;;29.90;52.40;;;;;;5117271;27;20132;-55
2022/07/16 06:56:15;;;;;;;2.47;1.00;;;30.10;50.30;;;;;;5115196;27;20436;-45
2022/07/16 06:58:41;;;;;;;1.85;1.05;;;30.50;49.90;;;;;;5117068;27;20065;-56
2022/07/16 07:01:08;;;;;;;2.25;1.17;;;30.60;49.90;;;;;;5115481;27;20047;-50
2022/07/16 07:03:34;;;;;;;1.60;0.93;;;30.60;48.00;;;;;;5115369;27;20031;-43
2022/07/16 07:06:00;;;;;;;1.73;0.90;;;30.80;48.40;;;;;;5116921;27;20473;-57
2022/07/16 07:08:25;;;;;;;1.67;1.00;;;30.90;49.00;;;;;;5114987;27;20036;-41
2022/07/16 07:10:51;;;;;;;7.25;1.35;;;30.80;47.50;;;;;;5117008;27;20412;-56
2022/07/16 07:13:17;;;;;;;1.40;0.80;;;30.70;47.60;;;;;;5113413;28;20587;-56
2022/07/16 07:15:42;;;;;;;2.28;1.10;;;30.60;47.90;;;;;;5113260;28;20042;-51
2022/07/16 07:18:08;;;;;;;2.13;1.00;;;30.20;47.30;;;;;;5113321;28;20024;-58
2022/07/16 07:20:34;;;;;;;1.35;1.00;;;30.20;48.10;;;;;;5112786;28;20015;-53
2022/07/16 07:23:00;;;;;;;2.55;1.00;;;30.40;46.90;;;;;;5112095;28;20038;-48
2022/07/16 07:25:26;;;;;;;1.92;1.08;;;30.60;47.40;;;;;;5113207;28;20030;-47
2022/07/16 07:27:52;;;;;;;3.70;1.30;;;30.80;47.20;;;;;;5113279;28;20024;-54
2022/07/16 07:30:18;;;;;;;3.08;1.38;;;30.00;45.80;;;;;;5113284;28;20118;-57
2022/07/16 07:32:44;;;;;;;2.92;1.10;;;29.70;47.00;;;;;;5113144;28;20138;-56
2022/07/16 07:35:09;;;;;;;1.30;0.70;;;30.50;47.90;;;;;;5112759;28;20362;-58
2022/07/16 07:37:35;;;;;;;2.33;0.95;;;31.10;48.30;;;;;;5111036;28;20020;-49
2022/07/16 07:40:03;;;;;;;1.88;1.00;;;31.60;47.10;;;;;;5110737;28;20431;-44
2022/07/16 07:42:29;;;;;;;1.98;0.93;;;31.60;45.60;;;;;;5111034;28;20493;-50
2022/07/16 07:44:55;;;;;;;1.55;0.90;;;32.20;43.60;;;;;;5110851;28;20024;-52
2022/07/16 07:47:21;;;;;;;3.33;0.85;;;32.60;42.90;;;;;;5110794;28;20020;-50
2022/07/16 07:49:47;;;;;;;2.15;1.00;;;32.00;44.30;;;;;;5110573;28;20047;-51
2022/07/16 07:52:13;;;;;;;2.17;0.98;;;31.90;43.40;;;;;;5111731;28;20015;-53
2022/07/16 07:54:39;;;;;;;1.40;1.00;;;32.10;44.30;;;;;;5112752;28;20023;-44
2022/07/16 07:57:04;;;;;;;2.80;0.77;;;32.60;43.70;;;;;;5112571;28;20113;-41
2022/07/16 07:59:30;;;;;;;1.50;1.10;;;32.60;42.10;;;;;;5112530;28;20427;-56
2022/07/16 08:01:59;;;;;;;1.40;0.90;;;32.70;42.50;;;;;;5112274;28;20390;-50
2022/07/16 08:04:25;;;;;;;2.38;0.95;;;32.50;43.00;;;;;;5112692;28;20020;-49
2022/07/16 08:06:51;;;;;;;1.75;1.05;;;32.40;43.10;;;;;;5112535;28;20034;-54
2022/07/16 08:09:16;;;;;;;2.22;1.10;;;32.80;43.20;;;;;;5112103;28;20019;-54
2022/07/16 08:11:42;;;;;;;3.25;1.10;;;33.30;41.20;;;;;;5094179;28;20445;-56
2022/07/16 08:14:09;;;;;;;3.72;1.10;;;33.00;40.00;;;;;;5112426;28;20110;-51
2022/07/16 08:16:34;;;;;;;1.52;1.00;;;33.60;43.00;;;;;;5111747;28;20462;-56
2022/07/16 08:19:00;;;;;;;1.65;1.10;;;33.80;40.70;;;;;;5111939;28;20100;-52
2022/07/16 08:21:27;;;;;;;1.85;1.10;;;32.90;40.90;;;;;;5112253;28;20028;-46
2022/07/16 08:26:37;;;;;;;0.82;0.80;;;33.50;41.00;;;;;;5112417;28;20072;-49
2022/07/16 08:29:03;;;;;;;2.53;1.13;;;33.60;40.90;;;;;;5093663;28;20126;-52
2022/07/16 08:31:29;;;;;;;4.10;1.17;;;33.80;41.40;;;;;;5112263;28;20015;-53
2022/07/16 08:33:54;;;;;;;2.63;1.08;;;33.90;41.10;;;;;;5112020;28;20390;-44
2022/07/16 08:36:20;;;;;;;2.13;0.80;;;33.90;40.40;;;;;;5093585;28;20023;-52
2022/07/16 08:38:46;;;;;;;2.50;1.42;;;33.60;38.40;;;;;;5093497;28;20020;-50
2022/07/16 08:41:14;;;;;;;2.38;1.00;;;32.40;41.20;;;;;;5111942;28;20023;-52
2022/07/16 08:43:40;;;;;;;1.67;0.90;;;33.10;41.90;;;;;;5093492;28;20012;-48
2022/07/16 08:46:07;;;;;;;1.70;0.98;;;32.60;39.80;;;;;;5112049;28;20038;-52
2022/07/16 08:48:32;;;;;;;2.75;1.08;;;32.50;42.60;;;;;;5111483;28;20149;-47
2022/07/16 08:51:01;;;;;;;3.55;1.30;;;32.60;40.80;;;;;;5111789;28;20457;-52
2022/07/16 08:53:31;;;;;;;1.92;1.10;;;32.60;41.90;;;;;;5111513;28;20051;-43
2022/07/16 08:55:59;;;;;;;2.25;1.20;;;32.70;43.50;;;;;;5111704;28;20027;-49
2022/07/16 08:58:31;;;;;;;2.28;1.23;;;32.40;42.30;;;;;;5111770;28;20031;-56
2022/07/16 09:00:57;;;;;;;3.83;1.17;;;32.20;42.70;;;;;;5111565;28;20072;-58
2022/07/16 09:03:23;;;;;;;2.55;1.30;;;31.40;42.20;;;;;;5111607;28;20430;-54
2022/07/16 09:05:51;;;;;;;2.67;1.40;;;31.10;43.40;;;;;;5111038;28;20030;-46
2022/07/16 09:08:17;;;;;;;;;;;31.10;45.20;;;;;;5111390;28;20097;-59
2022/07/16 09:10:43;;;;;;;1.58;1.00;;;31.20;46.00;;;;;;5111355;28;19923;-52
2022/07/16 09:13:10;;;;;;;2.03;1.10;;;31.50;44.40;;;;;;5111320;28;20027;-48
2022/07/16 09:15:38;;;;;;;2.55;1.00;;;31.20;43.70;;;;;;5111512;28;20110;-52
2022/07/16 09:18:21;;;;;;;2.08;1.00;;;31.50;44.60;;;;;;5111429;28;20020;-49
2022/07/16 09:21:02;;;;;;;2.85;1.40;;;31.50;44.20;;;;;;5111565;28;20822;-49
2022/07/16 09:23:36;;;;;;;3.17;1.17;;;31.50;45.30;;;;;;5111144;28;20016;-56
2022/07/16 09:26:07;;;;;;;2.13;1.20;;;31.60;45.60;;;;;;5111398;28;20027;-49
2022/07/16 09:28:50;;;;;;;3.40;1.27;;;31.80;44.60;;;;;;5111059;28;20027;-48
2022/07/16 09:31:39;;;;;;;2.17;1.17;;;31.70;45.00;;;;;;5111397;28;20042;-50
2022/07/16 09:34:10;;;;;;;2.17;1.10;;;31.90;44.10;;;;;;5103232;28;20032;-44
2022/07/16 09:36:37;;;;;;;2.17;1.17;;;31.80;44.70;;;;;;5111246;28;20031;-48
2022/07/16 09:39:08;;;;;;;2.38;1.48;;;31.90;43.80;;;;;;5115418;28;20028;-51
2022/07/16 09:41:46;;;;;;;3.60;1.20;;;31.60;42.40;;;;;;5115287;28;20015;-47
2022/07/16 09:44:17;;;;;;;3.05;1.50;;;31.00;43.30;;;;;;5115219;28;20501;-53
2022/07/16 09:47:10;;;;;;;2.47;1.30;;;30.50;45.40;;;;;;5115192;28;20035;-49
2022/07/16 09:49:40;;;;;;;1.98;1.30;;;30.40;45.40;;;;;;5101950;28;20050;-56
2022/07/16 09:52:08;;;;;;;2.78;1.30;;;30.00;44.40;;;;;;5114952;28;20023;-50
2022/07/16 09:54:38;;;;;;;2.47;1.33;;;29.90;45.50;;;;;;5115429;28;20100;-56
2022/07/16 09:57:07;;;;;;;2.65;1.40;;;30.10;49.00;;;;;;5115127;28;20103;-52
2022/07/16 09:59:33;;;;;;;4.15;1.38;;;30.70;49.40;;;;;;5115281;28;20102;-51
2022/07/16 10:02:01;;;;;;;2.45;1.38;;;30.60;45.50;;;;;;5114944;28;20023;-56
2022/07/16 10:04:28;;;;;;;3.80;1.40;;;30.30;44.60;;;;;;5114670;28;20033;-45
2022/07/16 10:06:54;;;;;;;2.80;1.38;;;30.50;45.80;;;;;;5114109;28;20268;-53
2022/07/16 10:09:20;;;;;;;2.20;1.42;;;30.20;44.70;;;;;;5114319;28;20087;-45
2022/07/16 10:11:47;;;;;;;5.03;1.60;;;30.20;45.60;;;;;;5114742;28;20023;-45
2022/07/16 10:14:13;;;;;;;5.13;1.40;;;30.20;45.90;;;;;;5114792;28;20016;-48
2022/07/16 10:16:45;;;;;;;3.20;1.60;;;30.30;44.50;;;;;;5114652;28;20113;-51
2022/07/16 10:19:12;;;;;;;2.78;1.30;;;30.60;44.30;;;;;;5110313;28;20486;-52
2022/07/16 10:21:38;;;;;;;3.10;1.65;;;30.70;45.40;;;;;;5108762;28;20349;-50
2022/07/16 10:24:09;;;;;;;3.65;1.60;;;30.70;42.30;;;;;;5109825;28;20020;-60
2022/07/16 10:26:35;;;;;;;2.25;1.30;;;30.50;45.20;;;;;;5110177;28;20478;-54
2022/07/16 10:29:02;;;;;;;2.55;1.17;;;30.10;45.20;;;;;;5111656;28;20122;-49
2022/07/16 10:31:41;;;;;;;2.45;1.38;;;29.80;45.90;;;;;;5107808;28;20085;-49
2022/07/16 10:34:13;;;;;;;;;;;29.60;46.70;;;;;;5112792;28;20484;-46
2022/07/16 10:36:50;;;;;;;3.85;1.27;;;29.50;47.70;;;;;;5111451;28;19934;-57
2022/07/16 10:39:18;;;;;;;2.42;1.42;;;29.70;46.40;;;;;;5110001;28;20053;-52
2022/07/16 10:41:48;;;;;;;2.10;1.55;;;29.90;45.90;;;;;;5112905;28;20046;-53
2022/07/16 10:44:15;;;;;;;1.95;1.40;;;29.70;45.20;;;;;;5111560;28;20019;-46
2022/07/16 10:46:56;;;;;;;2.92;1.45;;;28.90;45.40;;;;;;5111637;28;20024;-52
2022/07/16 10:49:24;;;;;;;3.50;1.73;;;29.50;49.50;;;;;;5111067;28;20043;-53
2022/07/16 10:52:08;;;;;;;4.45;1.92;;;29.60;45.60;;;;;;5110672;28;20049;-46
2022/07/16 10:54:38;;;;;;;4.50;1.60;;;29.40;44.70;;;;;;5090668;28;20390;-56
2022/07/16 10:57:08;;;;;;;2.30;1.42;;;29.90;48.20;;;;;;5111404;28;20371;-50
2022/07/16 10:59:39;;;;;;;2.35;1.55;;;30.30;46.50;;;;;;5109489;28;20020;-56
2022/07/16 11:02:07;;;;;;;2.15;1.30;;;30.40;44.30;;;;;;5110611;28;20061;-57
2022/07/16 11:04:42;;;;;;;2.58;1.65;;;30.70;42.70;;;;;;5109968;28;20030;-58
2022/07/16 11:07:10;;;;;;;3.60;1.52;;;30.70;41.60;;;;;;5109098;28;20032;-55
2022/07/16 11:09:41;;;;;;;4.53;1.73;;;30.70;41.80;;;;;;5110384;28;20506;-50
2022/07/16 11:12:29;;;;;;;2.83;1.63;;;30.80;42.10;;;;;;5111177;28;20613;-48
2022/07/16 11:14:56;;;;;;;;;;;30.70;42.40;;;;;;5091115;28;20385;-56
2022/07/16 11:17:26;;;;;;;2.47;1.58;;;30.90;42.50;;;;;;5111285;28;19910;-53
2022/07/16 11:19:55;;;;;;;3.00;1.83;;;31.10;43.00;;;;;;5106042;28;20080;-55
2022/07/16 11:22:28;;;;;;;2.53;1.60;;;31.10;42.50;;;;;;5109575;28;20053;-54
2022/07/16 11:25:05;;;;;;;2.83;1.33;;;30.70;43.10;;;;;;5108721;28;20027;-47
2022/07/16 11:27:32;;;;;;;2.15;1.20;;;30.80;43.80;;;;;;5093643;28;20073;-44
2022/07/16 11:30:00;;;;;;;2.28;1.38;;;30.90;45.70;;;;;;5108913;28;20403;-48
2022/07/16 11:32:28;;;;;;;1.92;1.30;;;30.90;45.20;;;;;;5110489;28;20107;-56
2022/07/16 11:34:54;;;;;;;2.13;1.40;;;30.80;43.20;;;;;;5112646;28;20039;-42
2022/07/16 11:37:20;;;;;;;3.25;1.67;;;30.60;41.90;;;;;;5110110;28;20027;-44
2022/07/16 11:39:46;;;;;;;1.90;1.45;;;30.70;44.00;;;;;;5108913;28;20020;-45
2022/07/16 11:42:12;;;;;;;2.53;1.38;;;31.20;43.40;;;;;;5111324;28;20049;-52
2022/07/16 11:44:41;;;;;;;3.08;1.70;;;31.40;43.60;;;;;;5109437;28;20020;-54
2022/07/16 11:47:11;;;;;;;3.55;1.60;;;31.50;41.00;;;;;;5109708;28;20081;-48
2022/07/16 11:49:42;;;;;;;2.35;1.33;;;31.40;43.00;;;;;;5108239;28;20048;-51
2022/07/16 11:52:22;;;;;;;2.78;1.40;;;31.50;44.70;;;;;;5109772;28;20557;-55
2022/07/16 11:54:50;;;;;;;2.78;1.40;;;31.70;41.60;;;;;;5107364;28;20147;-50
2022/07/16 11:57:15;;;;;;;2.45;1.50;;;31.20;40.80;;;;;;5108618;28;20043;-44
2022/07/16 11:59:52;;;;;;;3.63;1.90;;;31.00;41.50;;;;;;5110906;28;20509;-46
2022/07/16 12:02:24;;;;;;;3.70;1.83;;;31.10;43.50;;;;;;5107280;28;20035;-44
2022/07/16 12:04:52;;;;;;;2.85;1.38;;;31.00;41.70;;;;;;5109421;28;20070;-47
2022/07/16 12:07:23;;;;;;;2.70;1.37;;;30.70;42.70;;;;;;5108313;28;20731;-51
2022/07/16 12:09:50;;;;;;;2.28;1.50;;;30.40;41.10;;;;;;5108722;28;20296;-45
2022/07/16 12:12:22;;;;;;;1.58;1.25;;;30.20;41.40;;;;;;5109250;28;20099;-50
2022/07/16 12:14:50;;;;;;;2.97;1.60;;;29.80;42.80;;;;;;5108543;28;20028;-41
2022/07/16 12:17:31;;;;;;;2.03;1.60;;;30.00;42.80;;;;;;5108782;28;20016;-57
2022/07/16 12:20:24;;;;;;;2.83;1.50;;;30.20;43.00;;;;;;5106326;28;20119;-52
2022/07/16 12:22:56;;;;;;;2.03;1.25;;;30.60;41.40;;;;;;5108714;28;20379;-48
2022/07/16 12:25:28;;;;;;;3.85;1.50;;;30.70;45.60;;;;;;5108954;28;20076;-59
2022/07/16 12:27:57;;;;;;;2.65;1.50;;;30.70;42.00;;;;;;5104289;28;20034;-53
2022/07/16 12:30:56;;;;;;;2.20;1.50;;;30.70;41.60;;;;;;5106793;28;20085;-56
2022/07/16 12:33:26;;;;;;;2.22;1.50;;;29.80;40.20;;;;;;5103249;28;20402;-47
2022/07/16 12:36:03;;;;;;;3.25;1.40;;;29.80;42.70;;;;;;5108373;28;20023;-49
2022/07/16 12:39:17;;;;;;;3.05;1.65;;;30.00;43.50;;;;;;5108649;28;20135;-48
2022/07/16 12:41:47;;;;;;;2.17;1.10;;;30.20;42.50;;;;;;5060782;28;20044;-43
2022/07/16 12:44:14;;;;;;;2.65;1.10;;;29.70;44.50;;;;;;5110198;28;20588;-45
2022/07/16 12:46:44;;;;;;;7.03;1.40;;;29.70;47.50;;;;;;5107485;28;20042;-44
2022/07/16 12:49:13;;;;;;;2.15;1.40;;;29.20;45.80;;;;;;5109731;28;20134;-43
2022/07/16 12:51:43;;;;;;;;;;;28.40;48.30;;;;;;5108364;28;20059;-48
2022/07/16 12:54:11;;;;;;;2.10;1.20;;;28.40;49.10;;;;;;5109063;28;19907;-47
2022/07/16 12:59:23;;;;;;;2.58;1.48;;;28.70;48.90;;;;;;5106743;28;20058;-44
2022/07/16 13:01:49;;;;;;;3.15;1.17;;;29.00;48.00;;;;;;5108872;28;20055;-50
2022/07/16 13:04:15;;;;;;;5.65;1.20;;;29.10;48.40;;;;;;5109892;28;20030;-48